Anza Borrego Desert Research Center, California Weather observations

Data are for 10 minute period ending at time listed.
 Day   Time   Solar   Ave.   Ave.  Ave.  Vector  Max.   Baro.   Total    
  of    of     Rad.   Air    Rel.  Wind   Wind   Wind  Press.  Precip.   
Year   Day            Temp.  Hum.  Speed  Dir.   Gust                    
2015   (PST)  Kw/m2    F      %     mph   deg.    mph    mb.     in.     
-------------------------------------------------------------------------
  63    7:20   0.16   55.0    52    4.3   199     6.7   501.6    0.00 
  63    7:30   0.20   56.9    48    3.8   158     5.8   501.6    0.00 
  63    7:40   0.23   57.7    49    2.7    65     7.1   501.6    0.00 
  63    7:50   0.27   59.7    48    1.4    56     3.8   501.6    0.00 
  63    8:00   0.31   58.0    53    2.8    27     6.6   501.6    0.00 
  63    8:10   0.34   58.9    52    2.1    80     4.2   501.6    0.00 
  63    8:20   0.38   58.3    52    2.3   122     3.7   501.6    0.00 
  63    8:30   0.42   60.2    44    2.3   225     3.8   501.6    0.00 
  63    8:40   0.45   62.3    38    2.8   356     4.7   501.7    0.00 
  63    8:50   0.48   62.4    36    2.8    43     4.5   501.7    0.00 
  63    9:00   0.52   62.6    37    3.7   106     5.8   501.7    0.00 
  63    9:10   0.55   62.3    37    5.5   107     9.1   501.8    0.00 
  63    9:20   0.58   62.1    36    4.4   114     6.6   501.8    0.00 
  63    9:30   0.61   62.7    36    4.7   136     9.8   501.8    0.00 
  63    9:40   0.64   62.3    37    6.1   122     8.8   501.8    0.00 
  63    9:50   0.66   62.7    33    6.4   134    11.0   501.8    0.00 
  63   10:00   0.68   63.1    32    8.0   126    12.3   501.8    0.00 
  63   10:10   0.71   63.2    31    7.5   143    10.9   501.8    0.00 
  63   10:20   0.73   63.3    30    5.0   143    12.1   501.8    0.00 
  63   10:30   0.75   63.7    30    7.1   146    11.8   501.8    0.00 
  63   10:40   0.77   64.4    28    4.5   152     8.1   501.8    0.00 
  63   10:50   0.78   65.4    27    5.6   164    10.8   501.8    0.00 
  63   11:00   0.80   65.4    26    5.6   177    10.8   501.8    0.00 
  63   11:10   0.81   65.8    25    3.8   172     9.0   501.8    0.00 
  63   11:20   0.82   66.1    24    4.7   133     8.6   501.8    0.00 
  63   11:30   0.83   66.1    23    3.3    80     6.8   501.8    0.00 
  63   11:40   0.84   66.1    23    4.5   120     9.2   501.8    0.00 
  63   11:50   0.84   66.6    23    5.3   146    12.8   501.8    0.00 
  63   12:00   0.84   66.3    22    5.3   123    12.9   501.8    0.00 
  63   12:10   0.84   66.9    21    4.8    92     7.6   501.8    0.00 
  63   12:20   0.84   67.2    20    3.9    90     8.3   501.8    0.00 
  63   12:30   0.83   67.3    20    5.7   148    15.3   501.8    0.00 
  63   12:40   0.83   66.9    20    9.5   131    15.2   501.8    0.00 
  63   12:50   0.82   67.5    19    9.0   134    12.7   501.8    0.00 
  63   13:00   0.81   67.3    17    6.7   158    13.2   501.8    0.00 
  63   13:10   0.77   68.5    17    6.7   147    13.7   501.8    0.00 
  63   13:20   0.78   68.0    17    8.9   158    13.8   501.8    0.00 
  63   13:30   0.77   68.3    16    7.3   153    12.1   501.8    0.00 
  63   13:40   0.75   69.0    16    7.0   127    12.3   501.8    0.00 
  63   13:50   0.73   69.2    16    8.1   134    14.6   501.8    0.00 
  63   14:00   0.71   69.4    15    8.7   126    15.4   501.8    0.00 
  63   14:10   0.69   68.8    15    7.2   107    12.6   501.8    0.00 
  63   14:20   0.67   69.1    15    8.0   141    13.2   501.8    0.00 
  63   14:30   0.64   69.1    15    7.3   122    12.6   501.8    0.00 
  63   14:40   0.61   69.2    15    7.3   140    11.2   501.8    0.00 
  63   14:50   0.58   69.0    14    6.7   174    11.4   501.8    0.00 
  63   15:00   0.55   69.2    14    6.0   134    11.1   501.8    0.00 
  63   15:10   0.52   69.1    14    6.4   148    11.4   501.8    0.00 
  63   15:20   0.49   69.2    14    5.1   149    10.7   501.8    0.00 
  63   15:30   0.46   69.0    14    7.8   128    11.5   501.8    0.00 
  63   15:40   0.42   68.6    14    6.1   130    10.4   501.8    0.00 
  63   15:50   0.39   69.4    14    6.2   106    11.0   501.8    0.00 
  63   16:00   0.35   68.4    14    5.9   133    11.9   501.8    0.00 
  63   16:10   0.31   69.0    14    5.1   108     8.1   501.8    0.00 
  63   16:20   0.28   68.8    14    5.0   108     8.3   501.8    0.00 
  63   16:30   0.24   68.4    14    3.4   143     5.8   501.8    0.00 
  63   16:40   0.20   68.4    15    3.5   129     7.0   501.8    0.00 
  63   16:50   0.14   67.4    15    5.7   145     8.3   501.8    0.00 
  63   17:00   0.03   65.7    16    6.1   140     8.8   501.8    0.00 
  63   17:10   0.02   64.7    17    5.4   145     7.2   501.8    0.00 
  63   17:20   0.01   64.1    18    3.4   153     5.0   501.8    0.00 
  63   17:30   0.01   62.3    24    2.9   172     4.5   501.8    0.00 
  63   17:40   0.01   59.4    32    3.4   206     5.0   501.8    0.00 
  63   17:50   0.00   58.1    33    5.8   232     8.7   501.7    0.00 
  63   18:00   0.00   59.3    27    9.0   240    11.0   501.7    0.00 
  63   18:10   0.00   59.7    26    9.6   236    11.2   501.7    0.00 
  63   18:20   0.00   59.3    26    8.6   235    10.5   501.7    0.00 
  63   18:30   0.00   57.9    30    6.1   245     8.8   501.6    0.00 
  63   18:40   0.00   58.4    28    7.1   246     9.2   501.6    0.00 
  63   18:50   0.00   58.0    29    6.6   256     8.8   501.6    0.00 
  63   19:00   0.00   57.5    30    7.0   257     9.6   501.6    0.00 
  63   19:10   0.00   57.5    30    7.4   263     9.7   501.6    0.00 
  63   19:20   0.00   58.6    27    8.1   260    10.9   501.6    0.00 
  63   19:30   0.00   57.9    28    7.2   254     9.9   501.6    0.00 
  63   19:40   0.00   57.9    27    7.3   254    11.2   501.6    0.00 
  63   19:50   0.00   57.6    27    7.7   255    11.1   501.6    0.00 
  63   20:00   0.00   57.7    27    7.8   261    11.6   501.6    0.00 
  63   20:10   0.00   57.4    27    7.1   256     9.9   501.6    0.00 
  63   20:20   0.00   56.7    29    6.6   272     8.8   501.6    0.00 
  63   20:30   0.00   57.1    28    6.0   282     8.0   501.6    0.00 
  63   20:40   0.00   57.3    27    6.4   276     8.3   501.6    0.00 
  63   20:50   0.00   57.2    27    8.1   248    10.5   501.6    0.00 
  63   21:00   0.00   56.4    28    7.3   249     9.6   501.6    0.00 
  63   21:10   0.00   56.0    29    8.3   250    11.1   501.6    0.00 
  63   21:20   0.00   56.1    28    7.6   247    10.7   501.6    0.00 
  63   21:30   0.00   55.9    28    6.3   253     9.1   501.6    0.00 
  63   21:40   0.00   56.4    28    6.8   254     9.3   501.6    0.00 
  63   21:50   0.00   56.4    27    6.4   251     8.6   501.6    0.00 
  63   22:00   0.00   56.2    28    6.0   242     9.3   501.6    0.00 
  63   22:10   0.00   55.7    28    7.6   237     9.9   501.6    0.00 
  63   22:20   0.00   55.5    28    7.7   234     9.6   501.6    0.00 
  63   22:30   0.00   55.5    28    9.2   236    12.2   501.6    0.00 
  63   22:40   0.00   56.0    27    8.5   232    12.1   501.6    0.00 
  63   22:50   0.00   55.7    28    9.9   239    12.3   501.6    0.00 
  63   23:00   0.00   55.4    29    7.2   247    10.1   501.6    0.00 
  63   23:10   0.00   55.1    28    8.9   239    11.6   501.6    0.00 
  63   23:20   0.00   56.4    26    9.1   237    12.7   501.6    0.00 
  63   23:30   0.00   55.4    29    7.7   257    14.7   501.6    0.00 
  63   23:40   0.00   56.4    26   11.5   237    15.1   501.6    0.00 
  63   23:50   0.00   56.5    26   10.4   236    15.3   501.6    0.00 
  64    0:00   0.00   56.2    26   11.6   232    13.8   501.6    0.00 
  64    0:10   0.00   56.1    27    6.0   232    12.3   501.6    0.00 
  64    0:20   0.00   54.7    30    0.9   116     3.1   501.6    0.00 
  64    0:30   0.00   54.3    30    2.7   266     6.9   501.6    0.00 
  64    0:40   0.00   54.7    29    3.2   261     5.3   501.6    0.00 
  64    0:50   0.00   53.4    32    3.0   239     4.8   501.6    0.00 
  64    1:00   0.00   52.6    33    5.4   216     9.5   501.6    0.00 
  64    1:10   0.00   52.6    34    8.1   218    10.7   501.6    0.00 
  64    1:20   0.00   54.0    30    6.8   220     9.5   501.6    0.00 
  64    1:30   0.00   54.3    30    7.7   217     9.9   501.6    0.00 
  64    1:40   0.00   53.7    31    8.6   233    11.2   501.6    0.00 
  64    1:50   0.00   54.6    29   11.0   237    13.4   501.6    0.00 
  64    2:00   0.00   55.2    28   10.7   233    13.0   501.6    0.00 
  64    2:10   0.00   55.3    27   10.4   239    13.9   501.6    0.00 
  64    2:20   0.00   56.0    26   11.5   240    13.4   501.6    0.00 
  64    2:30   0.00   56.0    26   10.2   240    14.2   501.6    0.00 
  64    2:40   0.00   55.8    26   10.3   240    13.0   501.6    0.00 
  64    2:50   0.00   55.7    26    9.5   240    12.7   501.6    0.00 
  64    3:00   0.00   55.3    27    9.0   244    13.5   501.6    0.00 
  64    3:10   0.00   55.5    26    8.4   236    11.4   501.6    0.00 
  64    3:20   0.00   54.6    28    8.3   234    11.7   501.6    0.00 
  64    3:30   0.00   54.5    28    7.8   229    10.2   501.6    0.00 
  64    3:40   0.00   53.0    31    7.5   244    10.2   501.6    0.00 
  64    3:50   0.00   53.7    29    7.9   244    10.2   501.6    0.00 
  64    4:00   0.00   52.6    32    7.0   248     9.6   501.6    0.00 
  64    4:10   0.00   52.1    32    5.5   256     8.8   501.6    0.00 
  64    4:20   0.00   51.4    33    2.0   241     5.0   501.6    0.00 
  64    4:30   0.00   51.1    34    4.7   236     6.7   501.6    0.00 
  64    4:40   0.00   50.5    35    6.5   239     9.5   501.6    0.00 
  64    4:50   0.00   50.9    34    6.3   245     9.5   501.6    0.00 
  64    5:00   0.00   51.7    32    6.8   243     9.3   501.6    0.00 
  64    5:10   0.00   50.4    35    3.9   245     7.1   501.6    0.00 
  64    5:20   0.00   50.5    34    4.0   249     5.8   501.6    0.00 
  64    5:30   0.00   49.6    37    2.2   241     3.9   501.6    0.00 
  64    5:40   0.00   47.6    42    3.3   247     4.1   501.6    0.00 
  64    5:50   0.00   46.8    43    4.2   233     5.0   501.6    0.00 
  64    6:00   0.00   47.6    41    4.7   244     6.0   501.6    0.00 
  64    6:10   0.00   47.6    42    4.6   246     6.1   501.6    0.00 
  64    6:20   0.00   47.1    43    3.9   228     4.8   501.6    0.00 
  64    6:30   0.02   47.9    43    3.0   208     4.6   501.6    0.00 
  64    6:40   0.04   49.0    42    2.3   215     3.8   501.6    0.00 
  64    6:50   0.08   51.5    39    1.2   244     2.6   501.6    0.00 
  64    7:00   0.10   53.5    41    0.9   191     2.2   501.6    0.00 
  64    7:10   0.14   55.8    39    1.0   128     4.3   501.6    0.00 

Return to Anza Borrego Desert Research Center graphs page.


Western Regional Climate Center,wrcc@dri.edu